sensor_id;sensor_type;location;lat;lon;timestamp;temperature;humidity
9049;DHT22;4559;47.252;9.592;2022-09-21T00:01:16;12.40;99.90
9049;DHT22;4559;47.252;9.592;2022-09-21T00:03:43;12.30;99.90
9049;DHT22;4559;47.252;9.592;2022-09-21T00:06:15;12.30;99.90
9049;DHT22;4559;47.252;9.592;2022-09-21T00:08:42;12.30;99.90
9049;DHT22;4559;47.252;9.592;2022-09-21T00:11:11;12.20;99.90
9049;DHT22;4559;47.252;9.592;2022-09-21T00:13:38;12.20;99.90
9049;DHT22;4559;47.252;9.592;2022-09-21T00:16:05;12.20;99.90
9049;DHT22;4559;47.252;9.592;2022-09-21T00:18:31;12.30;99.90
9049;DHT22;4559;47.252;9.592;2022-09-21T00:20:57;12.20;99.90
9049;DHT22;4559;47.252;9.592;2022-09-21T00:23:23;12.20;99.90
9049;DHT22;4559;47.252;9.592;2022-09-21T00:25:48;12.30;99.90
9049;DHT22;4559;47.252;9.592;2022-09-21T00:28:14;12.30;99.90
9049;DHT22;4559;47.252;9.592;2022-09-21T00:30:40;12.30;99.90
9049;DHT22;4559;47.252;9.592;2022-09-21T00:33:06;12.20;99.90
9049;DHT22;4559;47.252;9.592;2022-09-21T00:35:32;12.20;99.90
9049;DHT22;4559;47.252;9.592;2022-09-21T00:38:02;12.20;99.90
9049;DHT22;4559;47.252;9.592;2022-09-21T00:40:28;12.20;99.90
9049;DHT22;4559;47.252;9.592;2022-09-21T00:43:09;12.20;99.90
9049;DHT22;4559;47.252;9.592;2022-09-21T00:45:35;12.20;99.90
9049;DHT22;4559;47.252;9.592;2022-09-21T00:48:00;12.20;99.90
9049;DHT22;4559;47.252;9.592;2022-09-21T00:50:26;12.20;99.90
9049;DHT22;4559;47.252;9.592;2022-09-21T00:52:55;12.10;99.90
9049;DHT22;4559;47.252;9.592;2022-09-21T00:55:26;12.10;99.90
9049;DHT22;4559;47.252;9.592;2022-09-21T00:57:57;12.00;99.90
9049;DHT22;4559;47.252;9.592;2022-09-21T01:00:24;12.00;99.90
9049;DHT22;4559;47.252;9.592;2022-09-21T01:02:53;12.00;99.90
9049;DHT22;4559;47.252;9.592;2022-09-21T01:05:28;12.00;99.90
9049;DHT22;4559;47.252;9.592;2022-09-21T01:07:56;12.00;99.90
9049;DHT22;4559;47.252;9.592;2022-09-21T01:10:23;11.90;99.90
9049;DHT22;4559;47.252;9.592;2022-09-21T01:12:58;11.90;99.90
9049;DHT22;4559;47.252;9.592;2022-09-21T01:15:47;12.00;99.90
9049;DHT22;4559;47.252;9.592;2022-09-21T01:18:35;11.90;99.90
9049;DHT22;4559;47.252;9.592;2022-09-21T01:21:22;11.90;99.90
9049;DHT22;4559;47.252;9.592;2022-09-21T01:27:08;11.80;99.90
9049;DHT22;4559;47.252;9.592;2022-09-21T01:30:02;11.80;99.90
9049;DHT22;4559;47.252;9.592;2022-09-21T01:32:41;11.70;99.90
9049;DHT22;4559;47.252;9.592;2022-09-21T01:35:19;11.70;99.90
9049;DHT22;4559;47.252;9.592;2022-09-21T01:37:51;11.70;99.90
9049;DHT22;4559;47.252;9.592;2022-09-21T01:40:27;11.60;99.90
9049;DHT22;4559;47.252;9.592;2022-09-21T01:42:55;11.60;99.90
9049;DHT22;4559;47.252;9.592;2022-09-21T01:45:34;11.60;99.90
9049;DHT22;4559;47.252;9.592;2022-09-21T01:48:01;11.60;99.90
9049;DHT22;4559;47.252;9.592;2022-09-21T01:50:31;11.60;99.90
9049;DHT22;4559;47.252;9.592;2022-09-21T01:53:06;11.60;99.90
9049;DHT22;4559;47.252;9.592;2022-09-21T01:55:40;11.50;99.90
9049;DHT22;4559;47.252;9.592;2022-09-21T01:58:29;11.50;99.90
9049;DHT22;4559;47.252;9.592;2022-09-21T02:00:57;11.40;99.90
9049;DHT22;4559;47.252;9.592;2022-09-21T02:03:34;11.40;99.90
9049;DHT22;4559;47.252;9.592;2022-09-21T02:06:01;11.30;99.90
9049;DHT22;4559;47.252;9.592;2022-09-21T02:08:29;11.20;99.90
9049;DHT22;4559;47.252;9.592;2022-09-21T02:10:59;11.20;99.90
9049;DHT22;4559;47.252;9.592;2022-09-21T02:13:29;11.10;99.90
9049;DHT22;4559;47.252;9.592;2022-09-21T02:18:50;11.00;99.90
9049;DHT22;4559;47.252;9.592;2022-09-21T02:21:23;11.00;99.90
9049;DHT22;4559;47.252;9.592;2022-09-21T02:23:53;10.90;99.90
9049;DHT22;4559;47.252;9.592;2022-09-21T02:26:28;10.90;99.90
9049;DHT22;4559;47.252;9.592;2022-09-21T02:29:22;10.80;99.90
9049;DHT22;4559;47.252;9.592;2022-09-21T02:32:01;10.70;99.90
9049;DHT22;4559;47.252;9.592;2022-09-21T02:34:43;10.70;99.90
9049;DHT22;4559;47.252;9.592;2022-09-21T02:37:24;10.60;99.90
9049;DHT22;4559;47.252;9.592;2022-09-21T02:39:58;10.60;99.90
9049;DHT22;4559;47.252;9.592;2022-09-21T02:42:30;10.50;99.90
9049;DHT22;4559;47.252;9.592;2022-09-21T02:45:10;10.50;99.90
9049;DHT22;4559;47.252;9.592;2022-09-21T02:47:58;10.40;99.90
9049;DHT22;4559;47.252;9.592;2022-09-21T02:50:44;10.40;99.90
9049;DHT22;4559;47.252;9.592;2022-09-21T02:53:12;10.30;99.90
9049;DHT22;4559;47.252;9.592;2022-09-21T02:55:41;10.30;99.90
9049;DHT22;4559;47.252;9.592;2022-09-21T02:58:11;10.20;99.90
9049;DHT22;4559;47.252;9.592;2022-09-21T03:00:39;10.20;99.90
9049;DHT22;4559;47.252;9.592;2022-09-21T03:03:15;10.10;99.90
9049;DHT22;4559;47.252;9.592;2022-09-21T03:05:44;10.10;99.90
9049;DHT22;4559;47.252;9.592;2022-09-21T03:08:09;10.00;99.90
9049;DHT22;4559;47.252;9.592;2022-09-21T03:10:35;10.00;99.90
9049;DHT22;4559;47.252;9.592;2022-09-21T03:13:04;9.90;99.90
9049;DHT22;4559;47.252;9.592;2022-09-21T03:15:29;9.90;99.90
9049;DHT22;4559;47.252;9.592;2022-09-21T03:17:55;9.80;99.90
9049;DHT22;4559;47.252;9.592;2022-09-21T03:20:21;9.80;99.90
9049;DHT22;4559;47.252;9.592;2022-09-21T03:22:46;9.80;99.90
9049;DHT22;4559;47.252;9.592;2022-09-21T03:25:12;9.70;99.90
9049;DHT22;4559;47.252;9.592;2022-09-21T03:27:38;9.70;99.90
9049;DHT22;4559;47.252;9.592;2022-09-21T03:30:04;9.70;99.90
9049;DHT22;4559;47.252;9.592;2022-09-21T03:32:29;9.70;99.90
9049;DHT22;4559;47.252;9.592;2022-09-21T03:34:55;9.60;99.90
9049;DHT22;4559;47.252;9.592;2022-09-21T03:37:20;9.60;99.90
9049;DHT22;4559;47.252;9.592;2022-09-21T03:39:46;9.60;99.90
9049;DHT22;4559;47.252;9.592;2022-09-21T03:42:12;9.50;99.90
9049;DHT22;4559;47.252;9.592;2022-09-21T03:44:38;9.50;99.90
9049;DHT22;4559;47.252;9.592;2022-09-21T03:47:05;9.50;99.90
9049;DHT22;4559;47.252;9.592;2022-09-21T03:49:31;9.50;99.90
9049;DHT22;4559;47.252;9.592;2022-09-21T03:51:58;9.40;99.90
9049;DHT22;4559;47.252;9.592;2022-09-21T03:54:24;9.30;99.90
9049;DHT22;4559;47.252;9.592;2022-09-21T03:56:50;9.30;99.90
9049;DHT22;4559;47.252;9.592;2022-09-21T03:59:16;9.20;99.90
9049;DHT22;4559;47.252;9.592;2022-09-21T04:01:42;9.20;99.90
9049;DHT22;4559;47.252;9.592;2022-09-21T04:04:08;9.20;99.90
9049;DHT22;4559;47.252;9.592;2022-09-21T04:06:34;9.20;99.90
9049;DHT22;4559;47.252;9.592;2022-09-21T04:09:00;9.20;99.90
9049;DHT22;4559;47.252;9.592;2022-09-21T04:11:28;9.10;99.90
9049;DHT22;4559;47.252;9.592;2022-09-21T04:13:54;9.10;99.90
9049;DHT22;4559;47.252;9.592;2022-09-21T04:16:23;9.10;99.90
9049;DHT22;4559;47.252;9.592;2022-09-21T04:18:50;9.10;99.90
9049;DHT22;4559;47.252;9.592;2022-09-21T04:21:19;9.10;99.90
9049;DHT22;4559;47.252;9.592;2022-09-21T04:23:46;9.10;99.90
9049;DHT22;4559;47.252;9.592;2022-09-21T04:26:27;9.10;99.90
9049;DHT22;4559;47.252;9.592;2022-09-21T04:28:54;9.10;99.90
9049;DHT22;4559;47.252;9.592;2022-09-21T04:31:21;9.00;99.90
9049;DHT22;4559;47.252;9.592;2022-09-21T04:33:48;9.00;99.90
9049;DHT22;4559;47.252;9.592;2022-09-21T04:36:15;9.00;99.90
9049;DHT22;4559;47.252;9.592;2022-09-21T04:38:41;9.00;99.90
9049;DHT22;4559;47.252;9.592;2022-09-21T04:41:06;9.00;99.90
9049;DHT22;4559;47.252;9.592;2022-09-21T04:43:32;9.00;99.90
9049;DHT22;4559;47.252;9.592;2022-09-21T04:45:58;8.90;99.90
9049;DHT22;4559;47.252;9.592;2022-09-21T04:48:28;8.90;99.90
9049;DHT22;4559;47.252;9.592;2022-09-21T04:50:53;8.90;99.90
9049;DHT22;4559;47.252;9.592;2022-09-21T04:53:19;8.90;99.90
9049;DHT22;4559;47.252;9.592;2022-09-21T04:55:45;8.80;99.90
9049;DHT22;4559;47.252;9.592;2022-09-21T04:58:10;8.80;99.90
9049;DHT22;4559;47.252;9.592;2022-09-21T05:00:36;8.70;99.90
9049;DHT22;4559;47.252;9.592;2022-09-21T05:03:02;8.70;99.90
9049;DHT22;4559;47.252;9.592;2022-09-21T05:05:27;8.60;99.90
9049;DHT22;4559;47.252;9.592;2022-09-21T05:07:53;8.60;99.90
9049;DHT22;4559;47.252;9.592;2022-09-21T05:10:18;8.60;99.90
9049;DHT22;4559;47.252;9.592;2022-09-21T05:12:44;8.60;99.90
9049;DHT22;4559;47.252;9.592;2022-09-21T05:15:10;8.60;99.90
9049;DHT22;4559;47.252;9.592;2022-09-21T05:17:36;8.50;99.90
9049;DHT22;4559;47.252;9.592;2022-09-21T05:20:02;8.50;99.90
9049;DHT22;4559;47.252;9.592;2022-09-21T05:22:28;8.50;99.90
9049;DHT22;4559;47.252;9.592;2022-09-21T05:24:54;8.50;99.90
9049;DHT22;4559;47.252;9.592;2022-09-21T05:27:20;8.50;99.90
9049;DHT22;4559;47.252;9.592;2022-09-21T05:29:46;8.50;99.90
9049;DHT22;4559;47.252;9.592;2022-09-21T05:32:24;8.50;99.90
9049;DHT22;4559;47.252;9.592;2022-09-21T05:38:06;8.60;99.90
9049;DHT22;4559;47.252;9.592;2022-09-21T05:40:33;8.60;99.90
9049;DHT22;4559;47.252;9.592;2022-09-21T05:42:59;8.60;99.90
9049;DHT22;4559;47.252;9.592;2022-09-21T05:45:25;8.60;99.90
9049;DHT22;4559;47.252;9.592;2022-09-21T05:48:06;8.60;99.90
9049;DHT22;4559;47.252;9.592;2022-09-21T05:50:50;8.70;99.90
9049;DHT22;4559;47.252;9.592;2022-09-21T06:04:34;8.80;99.90
9049;DHT22;4559;47.252;9.592;2022-09-21T06:06:59;8.80;99.90
9049;DHT22;4559;47.252;9.592;2022-09-21T06:09:25;8.70;99.90
9049;DHT22;4559;47.252;9.592;2022-09-21T06:11:52;8.70;99.90
9049;DHT22;4559;47.252;9.592;2022-09-21T06:14:18;8.70;99.90
9049;DHT22;4559;47.252;9.592;2022-09-21T06:16:50;8.70;99.90
9049;DHT22;4559;47.252;9.592;2022-09-21T06:19:16;8.70;99.90
9049;DHT22;4559;47.252;9.592;2022-09-21T06:21:42;8.70;99.90
9049;DHT22;4559;47.252;9.592;2022-09-21T06:24:08;8.70;99.90
9049;DHT22;4559;47.252;9.592;2022-09-21T06:26:33;8.60;99.90
9049;DHT22;4559;47.252;9.592;2022-09-21T06:28:59;8.70;99.90
9049;DHT22;4559;47.252;9.592;2022-09-21T06:31:26;8.70;99.90
9049;DHT22;4559;47.252;9.592;2022-09-21T06:33:51;8.70;99.90
9049;DHT22;4559;47.252;9.592;2022-09-21T06:36:17;8.70;99.90
9049;DHT22;4559;47.252;9.592;2022-09-21T06:38:43;8.70;99.90
9049;DHT22;4559;47.252;9.592;2022-09-21T06:41:09;8.70;99.90
9049;DHT22;4559;47.252;9.592;2022-09-21T06:43:35;8.80;99.90
9049;DHT22;4559;47.252;9.592;2022-09-21T06:46:01;8.70;99.90
9049;DHT22;4559;47.252;9.592;2022-09-21T06:48:29;8.70;99.90
9049;DHT22;4559;47.252;9.592;2022-09-21T06:50:58;8.80;99.90
9049;DHT22;4559;47.252;9.592;2022-09-21T06:53:25;8.80;99.90
9049;DHT22;4559;47.252;9.592;2022-09-21T06:55:51;8.80;99.90
9049;DHT22;4559;47.252;9.592;2022-09-21T06:58:17;8.80;99.90
9049;DHT22;4559;47.252;9.592;2022-09-21T07:00:43;8.90;99.90
9049;DHT22;4559;47.252;9.592;2022-09-21T07:03:10;8.90;99.90
9049;DHT22;4559;47.252;9.592;2022-09-21T07:05:38;8.90;99.90
9049;DHT22;4559;47.252;9.592;2022-09-21T07:08:04;9.00;99.90
9049;DHT22;4559;47.252;9.592;2022-09-21T07:10:30;9.00;99.90
9049;DHT22;4559;47.252;9.592;2022-09-21T07:13:01;9.20;99.90
9049;DHT22;4559;47.252;9.592;2022-09-21T07:15:27;9.30;99.90
9049;DHT22;4559;47.252;9.592;2022-09-21T07:17:54;9.60;99.90
9049;DHT22;4559;47.252;9.592;2022-09-21T07:20:20;9.90;99.90
9049;DHT22;4559;47.252;9.592;2022-09-21T07:22:46;10.10;99.90
9049;DHT22;4559;47.252;9.592;2022-09-21T07:25:12;10.40;99.90
9049;DHT22;4559;47.252;9.592;2022-09-21T07:27:38;10.70;99.90
9049;DHT22;4559;47.252;9.592;2022-09-21T07:30:04;10.90;99.90
9049;DHT22;4559;47.252;9.592;2022-09-21T07:32:30;11.30;99.90
9049;DHT22;4559;47.252;9.592;2022-09-21T07:34:56;11.50;99.90
9049;DHT22;4559;47.252;9.592;2022-09-21T07:37:25;11.80;99.90
9049;DHT22;4559;47.252;9.592;2022-09-21T07:39:52;12.00;99.90
9049;DHT22;4559;47.252;9.592;2022-09-21T07:42:18;12.20;99.90
9049;DHT22;4559;47.252;9.592;2022-09-21T07:44:46;12.40;99.90
9049;DHT22;4559;47.252;9.592;2022-09-21T07:47:12;12.70;99.90
9049;DHT22;4559;47.252;9.592;2022-09-21T07:49:38;12.90;99.90
9049;DHT22;4559;47.252;9.592;2022-09-21T07:52:04;13.10;99.90
9049;DHT22;4559;47.252;9.592;2022-09-21T07:54:30;13.30;99.90
9049;DHT22;4559;47.252;9.592;2022-09-21T07:56:58;13.50;99.90
9049;DHT22;4559;47.252;9.592;2022-09-21T07:59:42;13.70;99.90
9049;DHT22;4559;47.252;9.592;2022-09-21T08:02:07;13.90;99.90
9049;DHT22;4559;47.252;9.592;2022-09-21T08:04:33;14.10;99.90
9049;DHT22;4559;47.252;9.592;2022-09-21T08:06:58;14.30;99.90
9049;DHT22;4559;47.252;9.592;2022-09-21T08:09:24;14.50;99.90
9049;DHT22;4559;47.252;9.592;2022-09-21T08:11:49;14.70;99.90
9049;DHT22;4559;47.252;9.592;2022-09-21T08:14:16;14.80;99.30
9049;DHT22;4559;47.252;9.592;2022-09-21T08:16:46;15.00;98.80
9049;DHT22;4559;47.252;9.592;2022-09-21T08:19:15;15.20;98.30
9049;DHT22;4559;47.252;9.592;2022-09-21T08:21:47;15.30;97.70
9049;DHT22;4559;47.252;9.592;2022-09-21T08:24:13;15.50;97.30
9049;DHT22;4559;47.252;9.592;2022-09-21T08:26:39;15.60;96.70
9049;DHT22;4559;47.252;9.592;2022-09-21T08:29:05;15.80;96.60
9049;DHT22;4559;47.252;9.592;2022-09-21T08:31:31;16.00;96.50
9049;DHT22;4559;47.252;9.592;2022-09-21T08:33:57;16.10;96.70
9049;DHT22;4559;47.252;9.592;2022-09-21T08:36:23;16.30;96.60
9049;DHT22;4559;47.252;9.592;2022-09-21T08:38:49;16.40;96.10
9049;DHT22;4559;47.252;9.592;2022-09-21T08:41:19;16.60;95.80
9049;DHT22;4559;47.252;9.592;2022-09-21T08:43:57;16.70;94.90
9049;DHT22;4559;47.252;9.592;2022-09-21T08:46:27;16.80;93.70
9049;DHT22;4559;47.252;9.592;2022-09-21T08:49:01;17.00;94.40
9049;DHT22;4559;47.252;9.592;2022-09-21T08:51:33;17.10;94.80
9049;DHT22;4559;47.252;9.592;2022-09-21T08:54:26;17.30;94.50
9049;DHT22;4559;47.252;9.592;2022-09-21T08:56:50;17.40;94.60
9049;DHT22;4559;47.252;9.592;2022-09-21T08:59:15;17.60;94.40
9049;DHT22;4559;47.252;9.592;2022-09-21T09:07:14;18.00;94.80
9049;DHT22;4559;47.252;9.592;2022-09-21T09:13:01;18.20;93.60
9049;DHT22;4559;47.252;9.592;2022-09-21T09:18:30;18.70;93.60
9049;DHT22;4559;47.252;9.592;2022-09-21T09:21:01;18.90;93.30
9049;DHT22;4559;47.252;9.592;2022-09-21T09:23:31;19.20;92.60
9049;DHT22;4559;47.252;9.592;2022-09-21T09:26:07;19.20;92.70
9049;DHT22;4559;47.252;9.592;2022-09-21T09:28:44;19.20;92.50
9049;DHT22;4559;47.252;9.592;2022-09-21T09:31:13;19.30;92.40
9049;DHT22;4559;47.252;9.592;2022-09-21T09:36:12;19.50;91.50
9049;DHT22;4559;47.252;9.592;2022-09-21T09:38:43;19.80;92.20
9049;DHT22;4559;47.252;9.592;2022-09-21T09:44:23;20.60;87.80
9049;DHT22;4559;47.252;9.592;2022-09-21T09:52:34;22.70;80.50
9049;DHT22;4559;47.252;9.592;2022-09-21T09:55:16;23.10;79.10
9049;DHT22;4559;47.252;9.592;2022-09-21T09:57:43;23.40;76.70
9049;DHT22;4559;47.252;9.592;2022-09-21T10:00:13;23.60;73.30
9049;DHT22;4559;47.252;9.592;2022-09-21T10:02:47;24.10;74.20
9049;DHT22;4559;47.252;9.592;2022-09-21T10:05:34;24.50;71.00
9049;DHT22;4559;47.252;9.592;2022-09-21T10:08:00;24.90;72.30
9049;DHT22;4559;47.252;9.592;2022-09-21T10:10:32;25.30;70.10
9049;DHT22;4559;47.252;9.592;2022-09-21T10:15:54;26.20;63.30
9049;DHT22;4559;47.252;9.592;2022-09-21T10:20:57;26.80;62.60
9049;DHT22;4559;47.252;9.592;2022-09-21T10:23:25;27.20;61.00
9049;DHT22;4559;47.252;9.592;2022-09-21T10:26:08;27.50;55.60
9049;DHT22;4559;47.252;9.592;2022-09-21T10:28:35;27.70;53.00
9049;DHT22;4559;47.252;9.592;2022-09-21T10:31:11;27.70;51.90
9049;DHT22;4559;47.252;9.592;2022-09-21T10:36:37;27.70;53.90
9049;DHT22;4559;47.252;9.592;2022-09-21T10:39:18;27.80;52.50
9049;DHT22;4559;47.252;9.592;2022-09-21T10:42:13;27.60;54.00
9049;DHT22;4559;47.252;9.592;2022-09-21T10:44:38;27.40;52.70
9049;DHT22;4559;47.252;9.592;2022-09-21T10:47:35;27.20;53.10
9049;DHT22;4559;47.252;9.592;2022-09-21T10:50:04;27.00;53.50
9049;DHT22;4559;47.252;9.592;2022-09-21T10:52:38;26.80;53.80
9049;DHT22;4559;47.252;9.592;2022-09-21T10:55:06;26.50;54.40
9049;DHT22;4559;47.252;9.592;2022-09-21T10:57:40;26.20;54.00
9049;DHT22;4559;47.252;9.592;2022-09-21T11:02:54;26.20;54.60
9049;DHT22;4559;47.252;9.592;2022-09-21T11:05:27;26.20;53.70
9049;DHT22;4559;47.252;9.592;2022-09-21T11:08:13;25.80;54.20
9049;DHT22;4559;47.252;9.592;2022-09-21T11:10:52;25.50;53.60
9049;DHT22;4559;47.252;9.592;2022-09-21T11:24:19;24.70;56.50
9049;DHT22;4559;47.252;9.592;2022-09-21T11:29:25;24.70;56.60
9049;DHT22;4559;47.252;9.592;2022-09-21T11:37:27;25.00;55.80
9049;DHT22;4559;47.252;9.592;2022-09-21T11:45:54;24.50;56.40
9049;DHT22;4559;47.252;9.592;2022-09-21T11:59:45;24.40;55.50
9049;DHT22;4559;47.252;9.592;2022-09-21T12:02:37;24.40;54.90
9049;DHT22;4559;47.252;9.592;2022-09-21T12:10:45;24.70;55.30
9049;DHT22;4559;47.252;9.592;2022-09-21T12:13:41;24.80;54.40
9049;DHT22;4559;47.252;9.592;2022-09-21T12:21:29;24.90;54.30
9049;DHT22;4559;47.252;9.592;2022-09-21T12:24:11;25.10;53.30
9049;DHT22;4559;47.252;9.592;2022-09-21T12:26:41;25.00;52.00
9049;DHT22;4559;47.252;9.592;2022-09-21T12:29:20;24.80;52.20
9049;DHT22;4559;47.252;9.592;2022-09-21T12:32:29;24.70;51.70
9049;DHT22;4559;47.252;9.592;2022-09-21T12:35:01;24.60;53.20
9049;DHT22;4559;47.252;9.592;2022-09-21T12:37:37;24.70;52.70
9049;DHT22;4559;47.252;9.592;2022-09-21T12:40:14;24.60;52.60
9049;DHT22;4559;47.252;9.592;2022-09-21T12:45:25;24.80;52.90
9049;DHT22;4559;47.252;9.592;2022-09-21T12:48:02;24.80;52.80
9049;DHT22;4559;47.252;9.592;2022-09-21T12:53:25;24.80;51.80
9049;DHT22;4559;47.252;9.592;2022-09-21T12:55:55;24.80;52.00
9049;DHT22;4559;47.252;9.592;2022-09-21T13:09:42;24.10;52.70
9049;DHT22;4559;47.252;9.592;2022-09-21T13:12:25;24.00;52.80
9049;DHT22;4559;47.252;9.592;2022-09-21T13:14:58;24.00;52.80
9049;DHT22;4559;47.252;9.592;2022-09-21T13:17:29;24.10;51.20
9049;DHT22;4559;47.252;9.592;2022-09-21T13:20:02;24.20;52.30
9049;DHT22;4559;47.252;9.592;2022-09-21T13:22:32;24.10;51.80
9049;DHT22;4559;47.252;9.592;2022-09-21T13:25:17;23.80;52.80
9049;DHT22;4559;47.252;9.592;2022-09-21T13:28:05;23.60;52.20
9049;DHT22;4559;47.252;9.592;2022-09-21T13:30:46;23.60;52.20
9049;DHT22;4559;47.252;9.592;2022-09-21T13:38:26;23.50;52.60
9049;DHT22;4559;47.252;9.592;2022-09-21T13:41:00;23.60;53.80
9049;DHT22;4559;47.252;9.592;2022-09-21T13:54:57;23.50;53.10
9049;DHT22;4559;47.252;9.592;2022-09-21T13:57:45;23.60;54.00
9049;DHT22;4559;47.252;9.592;2022-09-21T14:08:19;23.30;52.80
9049;DHT22;4559;47.252;9.592;2022-09-21T14:13:37;23.10;53.70
9049;DHT22;4559;47.252;9.592;2022-09-21T14:18:50;23.00;53.30
9049;DHT22;4559;47.252;9.592;2022-09-21T14:21:17;22.80;54.60
9049;DHT22;4559;47.252;9.592;2022-09-21T14:29:12;22.80;54.70
9049;DHT22;4559;47.252;9.592;2022-09-21T14:31:41;22.70;55.30
9049;DHT22;4559;47.252;9.592;2022-09-21T14:34:19;22.60;55.10
9049;DHT22;4559;47.252;9.592;2022-09-21T14:36:49;22.60;54.70
9049;DHT22;4559;47.252;9.592;2022-09-21T14:39:28;22.50;55.20
9049;DHT22;4559;47.252;9.592;2022-09-21T14:41:56;22.60;55.70
9049;DHT22;4559;47.252;9.592;2022-09-21T14:44:28;22.60;55.10
9049;DHT22;4559;47.252;9.592;2022-09-21T14:47:13;22.60;55.10
9049;DHT22;4559;47.252;9.592;2022-09-21T14:50:05;22.60;55.20
9049;DHT22;4559;47.252;9.592;2022-09-21T14:55:13;22.40;55.60
9049;DHT22;4559;47.252;9.592;2022-09-21T15:05:55;22.10;56.10
9049;DHT22;4559;47.252;9.592;2022-09-21T15:08:49;22.00;55.30
9049;DHT22;4559;47.252;9.592;2022-09-21T15:11:41;22.00;55.80
9049;DHT22;4559;47.252;9.592;2022-09-21T15:16:49;22.00;55.60
9049;DHT22;4559;47.252;9.592;2022-09-21T15:19:28;22.10;55.90
9049;DHT22;4559;47.252;9.592;2022-09-21T15:21:56;22.20;56.40
9049;DHT22;4559;47.252;9.592;2022-09-21T15:24:34;22.30;55.60
9049;DHT22;4559;47.252;9.592;2022-09-21T15:27:14;22.40;55.10
9049;DHT22;4559;47.252;9.592;2022-09-21T15:29:44;22.50;55.20
9049;DHT22;4559;47.252;9.592;2022-09-21T15:34:57;22.50;55.80
9049;DHT22;4559;47.252;9.592;2022-09-21T15:37:26;22.50;55.40
9049;DHT22;4559;47.252;9.592;2022-09-21T15:40:05;22.40;55.50
9049;DHT22;4559;47.252;9.592;2022-09-21T15:42:33;22.30;56.10
9049;DHT22;4559;47.252;9.592;2022-09-21T15:45:16;22.20;56.90
9049;DHT22;4559;47.252;9.592;2022-09-21T15:47:42;22.00;56.30
9049;DHT22;4559;47.252;9.592;2022-09-21T15:50:13;21.80;56.60
9049;DHT22;4559;47.252;9.592;2022-09-21T15:52:47;21.60;57.40
9049;DHT22;4559;47.252;9.592;2022-09-21T15:55:17;21.30;58.00
9049;DHT22;4559;47.252;9.592;2022-09-21T15:57:50;21.10;58.10
9049;DHT22;4559;47.252;9.592;2022-09-21T16:03:22;20.80;58.60
9049;DHT22;4559;47.252;9.592;2022-09-21T16:05:52;20.60;58.80
9049;DHT22;4559;47.252;9.592;2022-09-21T16:08:35;20.40;59.00
9049;DHT22;4559;47.252;9.592;2022-09-21T16:14:13;20.10;58.80
9049;DHT22;4559;47.252;9.592;2022-09-21T16:22:27;19.50;60.80
9049;DHT22;4559;47.252;9.592;2022-09-21T16:24:58;19.40;60.60
9049;DHT22;4559;47.252;9.592;2022-09-21T16:27:27;19.30;60.90
9049;DHT22;4559;47.252;9.592;2022-09-21T16:29:54;19.10;61.50
9049;DHT22;4559;47.252;9.592;2022-09-21T16:35:26;18.80;61.90
9049;DHT22;4559;47.252;9.592;2022-09-21T16:37:53;18.70;62.10
9049;DHT22;4559;47.252;9.592;2022-09-21T16:40:22;18.50;62.50
9049;DHT22;4559;47.252;9.592;2022-09-21T16:42:48;18.40;63.20
9049;DHT22;4559;47.252;9.592;2022-09-21T16:45:33;18.40;63.30
9049;DHT22;4559;47.252;9.592;2022-09-21T16:47:59;18.20;63.90
9049;DHT22;4559;47.252;9.592;2022-09-21T16:50:27;18.10;64.50
9049;DHT22;4559;47.252;9.592;2022-09-21T16:52:52;18.00;64.70
9049;DHT22;4559;47.252;9.592;2022-09-21T16:55:21;17.90;64.90
9049;DHT22;4559;47.252;9.592;2022-09-21T16:57:46;17.80;65.00
9049;DHT22;4559;47.252;9.592;2022-09-21T17:00:15;17.70;65.30
9049;DHT22;4559;47.252;9.592;2022-09-21T17:02:44;17.60;65.40
9049;DHT22;4559;47.252;9.592;2022-09-21T17:05:10;17.40;66.00
9049;DHT22;4559;47.252;9.592;2022-09-21T17:07:52;17.40;66.10
9049;DHT22;4559;47.252;9.592;2022-09-21T17:10:19;17.30;66.70
9049;DHT22;4559;47.252;9.592;2022-09-21T17:12:45;17.20;66.90
9049;DHT22;4559;47.252;9.592;2022-09-21T17:15:12;17.00;67.00
9049;DHT22;4559;47.252;9.592;2022-09-21T17:17:37;17.00;67.50
9049;DHT22;4559;47.252;9.592;2022-09-21T17:20:18;16.90;67.90
9049;DHT22;4559;47.252;9.592;2022-09-21T17:22:44;16.80;68.00
9049;DHT22;4559;47.252;9.592;2022-09-21T17:25:10;16.80;68.10
9049;DHT22;4559;47.252;9.592;2022-09-21T17:27:36;16.60;68.70
9049;DHT22;4559;47.252;9.592;2022-09-21T17:30:07;16.60;69.00
9049;DHT22;4559;47.252;9.592;2022-09-21T17:32:35;16.50;69.40
9049;DHT22;4559;47.252;9.592;2022-09-21T17:37:57;16.30;70.40
9049;DHT22;4559;47.252;9.592;2022-09-21T17:40:23;16.20;70.50
9049;DHT22;4559;47.252;9.592;2022-09-21T17:42:49;16.20;70.90
9049;DHT22;4559;47.252;9.592;2022-09-21T17:48:02;15.90;71.70
9049;DHT22;4559;47.252;9.592;2022-09-21T17:50:28;15.90;73.20
9049;DHT22;4559;47.252;9.592;2022-09-21T17:52:54;15.80;73.60
9049;DHT22;4559;47.252;9.592;2022-09-21T17:55:44;15.70;74.30
9049;DHT22;4559;47.252;9.592;2022-09-21T18:01:04;15.60;76.00
9049;DHT22;4559;47.252;9.592;2022-09-21T18:03:33;15.40;76.60
9049;DHT22;4559;47.252;9.592;2022-09-21T18:06:06;15.40;77.40
9049;DHT22;4559;47.252;9.592;2022-09-21T18:08:33;15.30;78.00
9049;DHT22;4559;47.252;9.592;2022-09-21T18:19:59;15.00;80.30
9049;DHT22;4559;47.252;9.592;2022-09-21T18:25:13;14.80;79.90
9049;DHT22;4559;47.252;9.592;2022-09-21T18:27:40;14.70;79.80
9049;DHT22;4559;47.252;9.592;2022-09-21T18:30:10;14.60;80.20
9049;DHT22;4559;47.252;9.592;2022-09-21T18:43:33;14.30;83.50
9049;DHT22;4559;47.252;9.592;2022-09-21T18:46:05;14.20;83.60
9049;DHT22;4559;47.252;9.592;2022-09-21T18:51:42;14.20;84.50
9049;DHT22;4559;47.252;9.592;2022-09-21T18:54:10;14.10;85.20
9049;DHT22;4559;47.252;9.592;2022-09-21T18:56:38;14.10;85.40
9049;DHT22;4559;47.252;9.592;2022-09-21T18:59:04;14.10;85.50
9049;DHT22;4559;47.252;9.592;2022-09-21T19:01:31;14.00;85.70
9049;DHT22;4559;47.252;9.592;2022-09-21T19:03:58;14.00;86.40
9049;DHT22;4559;47.252;9.592;2022-09-21T19:07:02;13.90;87.10
9049;DHT22;4559;47.252;9.592;2022-09-21T19:23:29;13.60;90.10
9049;DHT22;4559;47.252;9.592;2022-09-21T19:26:02;13.60;90.60
9049;DHT22;4559;47.252;9.592;2022-09-21T19:31:14;13.40;90.80
9049;DHT22;4559;47.252;9.592;2022-09-21T19:33:41;13.40;90.80
9049;DHT22;4559;47.252;9.592;2022-09-21T19:36:08;13.40;90.70
9049;DHT22;4559;47.252;9.592;2022-09-21T19:38:34;13.30;91.00
9049;DHT22;4559;47.252;9.592;2022-09-21T19:41:04;13.30;91.00
9049;DHT22;4559;47.252;9.592;2022-09-21T19:46:15;13.20;90.70
9049;DHT22;4559;47.252;9.592;2022-09-21T19:48:47;13.20;90.90
9049;DHT22;4559;47.252;9.592;2022-09-21T19:53:45;13.20;91.10
9049;DHT22;4559;47.252;9.592;2022-09-21T19:56:34;13.30;91.20
9049;DHT22;4559;47.252;9.592;2022-09-21T19:59:23;13.30;91.80
9049;DHT22;4559;47.252;9.592;2022-09-21T20:02:12;13.20;92.10
9049;DHT22;4559;47.252;9.592;2022-09-21T20:09:48;13.10;92.90
9049;DHT22;4559;47.252;9.592;2022-09-21T20:12:22;13.10;92.90
9049;DHT22;4559;47.252;9.592;2022-09-21T20:14:54;13.00;93.20
9049;DHT22;4559;47.252;9.592;2022-09-21T20:17:49;13.00;93.50
9049;DHT22;4559;47.252;9.592;2022-09-21T20:20:24;12.90;94.00
9049;DHT22;4559;47.252;9.592;2022-09-21T20:22:51;12.90;94.30
9049;DHT22;4559;47.252;9.592;2022-09-21T20:25:37;12.80;94.40
9049;DHT22;4559;47.252;9.592;2022-09-21T20:28:05;12.70;95.00
9049;DHT22;4559;47.252;9.592;2022-09-21T20:30:33;12.70;95.30
9049;DHT22;4559;47.252;9.592;2022-09-21T20:33:05;12.60;95.70
9049;DHT22;4559;47.252;9.592;2022-09-21T20:35:32;12.60;96.00